createdAt,value
2022-08-17T00:00:55.053Z,8.88
2022-08-17T00:06:42.081Z,9.60
2022-08-17T00:12:44.366Z,9.45
2022-08-17T00:19:06.249Z,10.57
2022-08-17T00:24:42.441Z,9.90
2022-08-17T00:30:30.748Z,9.30
2022-08-17T00:36:37.561Z,9.23
2022-08-17T00:42:28.830Z,10.00
2022-08-17T00:48:27.256Z,9.48
2022-08-17T00:54:28.688Z,9.65
2022-08-17T01:00:26.418Z,8.95
2022-08-17T01:06:16.148Z,10.68
2022-08-17T01:12:09.052Z,10.73
2022-08-17T01:23:43.029Z,9.77
2022-08-17T01:29:31.509Z,9.55
2022-08-17T01:35:18.233Z,9.32
2022-08-17T01:41:15.303Z,9.32
2022-08-17T01:47:01.992Z,10.18
2022-08-17T01:52:52.528Z,9.45
2022-08-17T01:58:40.747Z,10.13
2022-08-17T02:04:28.939Z,9.77
2022-08-17T02:10:20.335Z,10.02
2022-08-17T02:16:07.476Z,9.75
2022-08-17T02:21:56.075Z,10.13
2022-08-17T02:27:42.985Z,9.75
2022-08-17T02:33:42.888Z,10.27
2022-08-17T02:39:30.503Z,13.60
2022-08-17T02:45:22.899Z,12.27
2022-08-17T02:51:09.860Z,14.13
2022-08-17T02:56:56.714Z,13.77
2022-08-17T03:02:44.597Z,12.45
2022-08-17T03:08:31.776Z,11.18
2022-08-17T03:14:19.220Z,11.68
2022-08-17T03:20:16.159Z,10.88
2022-08-17T03:26:02.848Z,10.95
2022-08-17T03:31:50.468Z,10.77
2022-08-17T03:37:37.218Z,11.38
2022-08-17T03:43:24.233Z,11.70
2022-08-17T03:49:29.393Z,13.40
2022-08-17T03:55:36.100Z,13.35
2022-08-17T04:01:23.360Z,13.10
2022-08-17T04:07:10.510Z,14.00
2022-08-17T04:13:03.107Z,13.10
2022-08-17T04:24:36.562Z,12.43
2022-08-17T04:30:23.971Z,13.20
2022-08-17T04:36:14.777Z,13.77
2022-08-17T04:42:07.768Z,12.88
2022-08-17T04:47:54.800Z,14.60
2022-08-17T04:53:44.371Z,13.80
2022-08-17T04:59:31.014Z,14.00
2022-08-17T05:05:24.241Z,13.55
2022-08-17T05:11:11.795Z,13.30
2022-08-17T05:17:01.262Z,13.00
2022-08-17T05:22:52.289Z,13.18
2022-08-17T05:28:39.208Z,13.10
2022-08-17T05:34:26.996Z,13.15
2022-08-17T05:40:14.566Z,13.93
2022-08-17T05:46:16.508Z,14.18
2022-08-17T05:52:19.836Z,15.03
2022-08-17T05:58:12.877Z,14.10
2022-08-17T06:10:14.731Z,14.52
2022-08-17T06:16:04.834Z,17.63
2022-08-17T06:22:19.277Z,18.35
2022-08-17T06:28:16.300Z,20.52
2022-08-17T06:34:10.688Z,19.77
2022-08-17T06:40:33.896Z,20.35
2022-08-17T06:46:36.193Z,19.65
2022-08-17T06:52:45.726Z,20.88
2022-08-17T06:58:38.891Z,24.38
2022-08-17T07:04:31.291Z,21.05
2022-08-17T07:10:27.127Z,25.98
2022-08-17T07:16:51.746Z,26.00
2022-08-17T07:23:40.994Z,28.98
2022-08-17T07:29:28.182Z,27.60
2022-08-17T07:35:31.248Z,26.77
2022-08-17T07:41:57.543Z,28.63
2022-08-17T07:47:59.742Z,26.58
2022-08-17T07:53:46.872Z,26.33
2022-08-17T07:59:38.342Z,26.02
2022-08-17T08:05:49.385Z,25.52
2022-08-17T08:11:44.092Z,26.10
2022-08-17T08:17:37.628Z,24.55
2022-08-17T08:23:37.135Z,21.77
2022-08-17T08:29:52.369Z,22.38
2022-08-17T08:37:14.337Z,25.10
2022-08-17T08:43:31.268Z,25.73
2022-08-17T08:50:07.363Z,25.60
2022-08-17T08:56:10.053Z,24.23
2022-08-17T09:02:11.957Z,22.00
2022-08-17T09:08:11.181Z,21.03
2022-08-17T09:14:28.703Z,19.67
2022-08-17T09:20:28.136Z,17.85
2022-08-17T09:26:25.487Z,19.33
2022-08-17T09:32:25.158Z,18.23
2022-08-17T09:38:31.769Z,18.30
2022-08-17T09:44:46.388Z,17.42
2022-08-17T09:51:03.793Z,17.38
2022-08-17T09:57:11.843Z,18.08
2022-08-17T10:03:21.285Z,18.08
2022-08-17T10:09:38.987Z,17.70
2022-08-17T10:16:03.578Z,17.48
2022-08-17T10:22:35.161Z,18.63
2022-08-17T10:28:30.579Z,16.42
2022-08-17T10:34:59.473Z,15.23
2022-08-17T10:41:27.177Z,16.00
2022-08-17T10:47:21.094Z,14.27
2022-08-17T10:53:16.655Z,15.20
2022-08-17T10:59:09.139Z,15.05
2022-08-17T11:05:22.030Z,11.63
2022-08-17T11:11:45.481Z,10.10
2022-08-17T11:17:54.638Z,11.93
2022-08-17T11:23:48.608Z,10.55
2022-08-17T11:29:51.969Z,10.32
2022-08-17T11:35:51.467Z,10.38
2022-08-17T11:42:23.461Z,10.43
2022-08-17T11:48:46.187Z,10.57
2022-08-17T11:55:44.856Z,8.43
2022-08-17T12:01:36.503Z,9.50
2022-08-17T12:07:26.583Z,8.95
2022-08-17T12:13:18.443Z,7.13
2022-08-17T12:19:19.444Z,6.22
2022-08-17T12:25:22.344Z,7.07
2022-08-17T12:31:19.759Z,7.20
2022-08-17T12:37:15.491Z,6.82
2022-08-17T12:43:18.372Z,6.93
2022-08-17T12:49:48.501Z,5.95
2022-08-17T12:55:46.412Z,6.65
2022-08-17T13:01:41.584Z,6.65
2022-08-17T13:07:42.197Z,6.15
2022-08-17T13:13:32.785Z,6.07
2022-08-17T13:19:39.882Z,6.35
2022-08-17T13:32:19.991Z,7.53
2022-08-17T13:38:52.531Z,8.43
2022-08-17T13:44:43.059Z,6.72
2022-08-17T13:50:37.765Z,7.38
2022-08-17T13:56:38.427Z,6.82
2022-08-17T14:02:44.553Z,5.65
2022-08-17T14:08:37.568Z,4.78
2022-08-17T14:14:25.079Z,5.25
2022-08-17T14:20:13.498Z,5.25
2022-08-17T14:26:01.841Z,5.93
2022-08-17T14:31:53.489Z,4.40
2022-08-17T14:37:42.440Z,5.20
2022-08-17T14:43:31.543Z,4.05
2022-08-17T14:49:21.741Z,4.03
2022-08-17T14:55:09.612Z,4.13
2022-08-17T15:00:57.709Z,4.28
2022-08-17T15:06:49.044Z,4.95
2022-08-17T15:12:41.595Z,5.15
2022-08-17T15:18:29.606Z,4.72
2022-08-17T15:24:16.556Z,4.10
2022-08-17T15:30:07.619Z,4.10
2022-08-17T15:35:59.425Z,4.63
2022-08-17T15:41:47.442Z,4.23
2022-08-17T15:47:55.339Z,5.72
2022-08-17T15:53:45.249Z,5.97
2022-08-17T15:59:32.113Z,4.13
2022-08-17T16:05:32.756Z,4.47
2022-08-17T16:11:21.108Z,4.28
2022-08-17T16:17:39.762Z,3.80
2022-08-17T16:23:29.690Z,2.40
2022-08-17T16:29:17.003Z,2.53
2022-08-17T16:35:11.566Z,2.60
2022-08-17T16:41:06.165Z,2.67
2022-08-17T16:46:53.529Z,2.78
2022-08-17T16:52:43.938Z,2.92
2022-08-17T16:58:31.194Z,2.80
2022-08-17T17:04:19.887Z,2.70
2022-08-17T17:10:14.931Z,3.22
2022-08-17T17:16:57.167Z,3.97
2022-08-17T17:29:19.337Z,4.07
2022-08-17T17:35:15.635Z,5.10
2022-08-17T17:41:07.637Z,4.43
2022-08-17T18:01:23.401Z,5.25
2022-08-17T18:21:19.544Z,5.47
2022-08-17T18:27:44.754Z,5.53
2022-08-17T18:34:23.429Z,5.63
2022-08-17T18:56:52.877Z,6.70
2022-08-17T19:10:46.708Z,6.68
2022-08-17T19:17:37.410Z,6.85
2022-08-17T21:06:12.591Z,6.40
2022-08-17T21:12:10.754Z,7.72
2022-08-17T21:25:02.106Z,6.75
2022-08-17T21:31:06.748Z,6.40
2022-08-17T21:36:58.301Z,6.57
2022-08-17T21:42:49.139Z,6.10
2022-08-17T21:48:48.575Z,6.13
2022-08-17T21:54:50.839Z,5.88
2022-08-17T22:00:44.737Z,7.03
2022-08-17T22:06:57.111Z,5.80
2022-08-17T22:13:16.464Z,6.40
2022-08-17T22:19:12.443Z,7.03
2022-08-17T22:25:03.385Z,6.57
2022-08-17T22:31:38.631Z,7.40
2022-08-17T22:37:36.713Z,6.43
2022-08-17T22:43:43.706Z,6.78
2022-08-17T22:49:53.140Z,6.38
2022-08-17T22:56:11.836Z,6.20
2022-08-17T23:02:28.848Z,6.40
2022-08-17T23:08:37.726Z,6.18
2022-08-17T23:14:54.255Z,5.07
2022-08-17T23:21:24.144Z,4.32
2022-08-17T23:27:34.696Z,5.03
2022-08-17T23:33:54.638Z,5.38
2022-08-17T23:39:47.290Z,5.53
2022-08-17T23:45:37.134Z,5.20
2022-08-17T23:51:27.745Z,4.38
2022-08-17T23:57:33.850Z,4.63
